Time;durP1;ratioP1;P1;durP2;ratioP2;P2;SDS_P1;SDS_P2;PMS_P1;PMS_P2;Temp;Humidity;BMP_temperature;BMP_pressure;BME280_temperature;BME280_humidity;BME280_pressure;Samples;Min_cycle;Max_cycle;Signal;HPM_P1;HPM_P2
2020/12/22 00:02:02;;;;;;;32.85;26.17;;;11.20;96.70;;;;;;4910134;29;20036;-88
2020/12/22 00:04:29;;;;;;;28.20;23.98;;;11.20;96.70;;;;;;4908059;29;20499;-88
2020/12/22 00:06:57;;;;;;;32.00;24.92;;;11.20;96.70;;;;;;4920651;29;20079;-89
2020/12/22 00:09:25;;;;;;;32.55;24.60;;;11.30;96.70;;;;;;4909018;29;20938;-88
2020/12/22 00:11:52;;;;;;;30.70;22.30;;;11.30;96.70;;;;;;4937129;28;20382;-88
2020/12/22 00:14:20;;;;;;;32.78;24.67;;;11.30;96.70;;;;;;4906435;29;20079;-87
2020/12/22 00:16:48;;;;;;;31.05;24.35;;;11.30;96.70;;;;;;4906991;29;20043;-87
2020/12/22 00:19:15;;;;;;;29.05;24.33;;;11.30;96.70;;;;;;4922183;29;20511;-87
2020/12/22 00:21:42;;;;;;;30.38;25.00;;;11.30;96.70;;;;;;4938327;28;20511;-87
2020/12/22 00:24:09;;;;;;;30.27;23.95;;;11.30;96.70;;;;;;4908150;29;20582;-87
2020/12/22 00:26:37;;;;;;;29.80;24.15;;;11.30;96.70;;;;;;4907047;29;20068;-87
2020/12/22 00:29:05;;;;;;;29.92;24.48;;;11.30;96.70;;;;;;4909248;29;20071;-87
2020/12/22 00:31:36;;;;;;;30.52;25.35;;;11.30;96.70;;;;;;4910606;29;20704;-87
2020/12/22 00:34:03;;;;;;;29.63;23.30;;;11.30;96.70;;;;;;4904564;29;20056;-85
2020/12/22 00:36:30;;;;;;;29.65;23.95;;;11.40;96.70;;;;;;4902578;29;20048;-88
2020/12/22 00:38:57;;;;;;;26.88;23.10;;;11.30;96.70;;;;;;4938022;28;20158;-88
2020/12/22 00:41:24;;;;;;;30.92;24.45;;;11.30;96.70;;;;;;4909212;29;20095;-87
2020/12/22 00:43:52;;;;;;;28.13;22.48;;;11.30;96.70;;;;;;4925696;29;20052;-88
2020/12/22 00:46:20;;;;;;;28.48;22.90;;;11.30;96.70;;;;;;4923598;29;20040;-88
2020/12/22 00:48:47;;;;;;;28.25;22.70;;;11.30;96.70;;;;;;4939358;29;20051;-87
2020/12/22 00:51:21;;;;;;;29.08;23.67;;;11.30;96.70;;;;;;4906464;29;20058;-87
2020/12/22 00:53:52;;;;;;;27.42;22.67;;;11.30;96.70;;;;;;4921407;29;20040;-87
2020/12/22 00:56:20;;;;;;;27.60;21.30;;;11.30;96.70;;;;;;4907703;29;20047;-87
2020/12/22 00:58:50;;;;;;;20.83;17.40;;;11.30;96.70;;;;;;4901987;29;20134;-88
2020/12/22 01:01:19;;;;;;;22.02;16.70;;;11.30;96.70;;;;;;4907069;29;20052;-87
2020/12/22 01:03:47;;;;;;;18.88;16.10;;;11.20;96.70;;;;;;4907007;29;20142;-87
2020/12/22 01:06:15;;;;;;;19.88;16.33;;;11.10;96.70;;;;;;4909849;29;20127;-88
2020/12/22 01:08:43;;;;;;;19.80;17.30;;;11.10;96.70;;;;;;4907018;29;20050;-87
2020/12/22 01:11:11;;;;;;;20.17;16.33;;;11.00;96.70;;;;;;4907569;29;20068;-89
2020/12/22 01:13:38;;;;;;;18.02;15.68;;;11.00;96.70;;;;;;4923163;29;20036;-89
2020/12/22 01:16:06;;;;;;;19.17;15.98;;;11.00;96.70;;;;;;4933211;29;20559;-88
2020/12/22 01:18:44;;;;;;;19.35;16.02;;;11.10;96.70;;;;;;4919886;29;20614;-88
2020/12/22 01:21:19;;;;;;;18.15;16.25;;;11.10;96.70;;;;;;4905176;29;20062;-88
2020/12/22 01:23:46;;;;;;;20.35;16.80;;;11.10;96.70;;;;;;4907975;29;20562;-89
2020/12/22 01:26:18;;;;;;;20.45;16.25;;;11.10;96.70;;;;;;4907650;29;20507;-88
2020/12/22 01:28:49;;;;;;;24.80;17.52;;;11.10;96.70;;;;;;4942502;28;20086;-88
2020/12/22 01:31:21;;;;;;;22.50;17.48;;;11.20;96.70;;;;;;4922075;29;20328;-89
2020/12/22 01:33:50;;;;;;;19.75;17.30;;;11.20;96.70;;;;;;4902834;29;20059;-87
2020/12/22 01:36:17;;;;;;;19.67;16.85;;;11.20;96.70;;;;;;4902634;29;20046;-88
2020/12/22 01:38:44;;;;;;;22.50;18.77;;;11.20;96.70;;;;;;4906321;29;20525;-87
2020/12/22 01:41:12;;;;;;;19.50;17.20;;;11.20;96.70;;;;;;4905001;29;20546;-87
2020/12/22 01:43:39;;;;;;;21.80;18.33;;;11.20;96.70;;;;;;4906632;29;20052;-88
2020/12/22 01:46:07;;;;;;;20.75;17.65;;;11.20;96.70;;;;;;4889654;29;20040;-88
2020/12/22 01:48:36;;;;;;;21.77;18.08;;;11.20;96.70;;;;;;4938906;28;20055;-88
2020/12/22 01:51:05;;;;;;;22.50;17.20;;;11.30;96.70;;;;;;4905551;29;20408;-88
2020/12/22 01:53:32;;;;;;;22.65;18.30;;;11.30;96.70;;;;;;4907242;29;20042;-88
2020/12/22 01:55:59;;;;;;;19.38;16.88;;;11.30;96.70;;;;;;4905504;29;20047;-88
2020/12/22 01:58:26;;;;;;;19.80;16.38;;;11.30;96.70;;;;;;4907241;29;20048;-87
2020/12/22 02:00:53;;;;;;;17.95;16.05;;;11.30;96.70;;;;;;4903175;29;20085;-87
2020/12/22 02:03:21;;;;;;;19.27;16.15;;;11.20;96.70;;;;;;4921912;29;20059;-88
2020/12/22 02:05:48;;;;;;;18.10;15.88;;;11.20;96.70;;;;;;4905181;29;20040;-87
2020/12/22 02:08:16;;;;;;;18.73;15.43;;;11.20;96.70;;;;;;4890270;29;20051;-87
2020/12/22 02:10:51;;;;;;;19.08;15.52;;;11.20;96.70;;;;;;4905414;29;20051;-87
2020/12/22 02:13:19;;;;;;;16.55;14.48;;;11.10;96.70;;;;;;4920458;29;20083;-87
2020/12/22 02:15:46;;;;;;;18.10;15.63;;;11.10;96.70;;;;;;4901281;29;20048;-88
2020/12/22 02:18:13;;;;;;;17.30;14.93;;;11.10;96.70;;;;;;4903628;29;20059;-88
2020/12/22 02:20:42;;;;;;;18.80;16.08;;;11.10;96.70;;;;;;4920199;29;20506;-88
2020/12/22 02:23:12;;;;;;;16.50;14.80;;;11.10;96.70;;;;;;4931088;29;20040;-88
2020/12/22 02:25:46;;;;;;;17.80;15.23;;;11.10;96.70;;;;;;4904532;29;20103;-88
2020/12/22 02:28:13;;;;;;;18.05;15.38;;;11.10;96.70;;;;;;4906083;29;20044;-87
2020/12/22 02:30:40;;;;;;;18.60;16.10;;;11.10;96.70;;;;;;4922914;29;20044;-87
2020/12/22 02:33:08;;;;;;;17.70;15.77;;;11.10;96.70;;;;;;4900919;29;20502;-88
2020/12/22 02:35:35;;;;;;;19.20;16.85;;;11.10;96.70;;;;;;4916542;29;20507;-88
2020/12/22 02:38:02;;;;;;;18.73;15.95;;;11.10;96.70;;;;;;4906881;29;20537;-88
2020/12/22 02:40:31;;;;;;;18.33;16.00;;;11.20;96.70;;;;;;4907215;29;20131;-88
2020/12/22 02:43:08;;;;;;;18.10;15.90;;;11.20;96.70;;;;;;4929916;28;20298;-88
2020/12/22 02:45:35;;;;;;;20.48;17.23;;;11.20;96.70;;;;;;4907817;29;20044;-89
2020/12/22 02:48:03;;;;;;;24.50;19.45;;;11.20;96.70;;;;;;4905342;29;20052;-88
2020/12/22 02:50:31;;;;;;;23.80;20.38;;;11.10;96.70;;;;;;4937125;28;20048;-87
2020/12/22 02:53:00;;;;;;;24.05;20.42;;;11.10;96.70;;;;;;4908265;29;20559;-89
2020/12/22 02:55:27;;;;;;;24.08;20.98;;;11.10;96.70;;;;;;4904903;29;20138;-90
2020/12/22 02:57:55;;;;;;;24.77;20.73;;;11.10;96.70;;;;;;4921296;29;20441;-90
2020/12/22 03:00:23;;;;;;;26.20;21.40;;;11.10;96.70;;;;;;4937147;28;20247;-90
2020/12/22 03:02:50;;;;;;;26.73;22.33;;;11.10;96.70;;;;;;4916793;29;20052;-90
2020/12/22 03:05:18;;;;;;;28.42;23.40;;;11.10;96.70;;;;;;4907372;29;20052;-89
2020/12/22 03:07:46;;;;;;;27.17;22.50;;;11.10;96.70;;;;;;4906924;29;20593;-90
2020/12/22 03:10:14;;;;;;;30.23;24.08;;;11.10;96.70;;;;;;4906131;29;20158;-89
2020/12/22 03:12:42;;;;;;;26.77;22.95;;;11.10;96.70;;;;;;4921375;29;20391;-89
2020/12/22 03:15:11;;;;;;;29.13;22.85;;;11.10;96.70;;;;;;4907217;29;20048;-89
2020/12/22 03:17:39;;;;;;;31.15;23.90;;;11.10;96.70;;;;;;4905179;29;20036;-88
2020/12/22 03:20:07;;;;;;;27.50;24.10;;;11.10;96.70;;;;;;4918857;29;20063;-89
2020/12/22 03:22:35;;;;;;;27.35;22.98;;;11.20;96.70;;;;;;4904190;29;20055;-88
2020/12/22 03:25:03;;;;;;;30.40;23.63;;;11.20;96.70;;;;;;4895395;29;20569;-89
2020/12/22 03:27:30;;;;;;;29.40;23.42;;;11.20;96.70;;;;;;4934264;28;20036;-89
2020/12/22 03:29:58;;;;;;;28.23;23.80;;;11.20;96.70;;;;;;4939654;29;20426;-89
2020/12/22 03:32:26;;;;;;;29.73;24.67;;;11.10;96.70;;;;;;4891301;29;20048;-89
2020/12/22 03:34:53;;;;;;;33.80;25.42;;;11.10;96.70;;;;;;4905435;29;20064;-87
2020/12/22 03:37:21;;;;;;;27.63;24.65;;;11.10;96.70;;;;;;4919432;29;20058;-89
2020/12/22 03:39:49;;;;;;;32.35;25.55;;;11.10;96.70;;;;;;4940798;29;20063;-89
2020/12/22 03:42:17;;;;;;;30.25;25.42;;;11.10;96.70;;;;;;4891958;29;20129;-89
2020/12/22 03:44:45;;;;;;;30.67;25.73;;;11.10;96.70;;;;;;4906970;29;20537;-89
2020/12/22 03:47:13;;;;;;;32.38;24.55;;;11.10;96.70;;;;;;4900349;29;20132;-89
2020/12/22 03:49:41;;;;;;;27.52;24.40;;;11.10;96.70;;;;;;4910207;29;20056;-90
2020/12/22 03:52:09;;;;;;;26.20;23.10;;;11.10;96.70;;;;;;4907872;29;20051;-89
2020/12/22 03:54:36;;;;;;;31.95;24.52;;;11.10;96.70;;;;;;4908157;29;20088;-89
2020/12/22 03:57:04;;;;;;;30.48;25.45;;;11.10;96.70;;;;;;4925615;28;20047;-89
2020/12/22 03:59:33;;;;;;;28.73;24.02;;;11.10;96.70;;;;;;4909052;29;20123;-90
2020/12/22 04:02:00;;;;;;;31.77;24.27;;;11.10;96.70;;;;;;4939282;28;20074;-88
2020/12/22 04:04:28;;;;;;;27.20;24.15;;;11.20;96.70;;;;;;4908288;29;20096;-90
2020/12/22 04:06:56;;;;;;;28.17;24.10;;;11.20;96.70;;;;;;4907931;29;20040;-89
2020/12/22 04:09:23;;;;;;;26.52;22.88;;;11.20;96.70;;;;;;4921307;29;20041;-89
2020/12/22 04:11:51;;;;;;;27.15;22.27;;;11.20;96.70;;;;;;4908189;29;20450;-88
2020/12/22 04:14:19;;;;;;;26.35;21.75;;;11.10;96.70;;;;;;4904391;29;20052;-89
2020/12/22 04:16:47;;;;;;;25.58;22.00;;;11.10;96.70;;;;;;4893487;29;20040;-88
2020/12/22 04:19:15;;;;;;;26.02;22.40;;;11.10;96.70;;;;;;4908581;29;20277;-89
2020/12/22 04:21:43;;;;;;;27.17;22.38;;;11.10;96.70;;;;;;4904776;29;20047;-89
2020/12/22 04:24:11;;;;;;;27.50;22.77;;;11.10;96.70;;;;;;4906625;29;20051;-89
2020/12/22 04:26:38;;;;;;;25.23;21.77;;;11.10;96.70;;;;;;4922221;29;20048;-88
2020/12/22 04:29:06;;;;;;;24.17;21.13;;;11.20;96.70;;;;;;4937247;28;20076;-87
2020/12/22 04:31:33;;;;;;;27.00;22.38;;;11.20;96.70;;;;;;4906768;29;20046;-88
2020/12/22 04:34:00;;;;;;;25.10;22.33;;;11.20;96.70;;;;;;4903232;29;20068;-89
2020/12/22 04:36:27;;;;;;;26.70;22.38;;;11.10;96.70;;;;;;4906865;29;20067;-89
2020/12/22 04:38:55;;;;;;;28.55;23.70;;;11.10;96.70;;;;;;4918580;29;20678;-89
2020/12/22 04:41:23;;;;;;;26.42;22.17;;;11.10;96.70;;;;;;4906622;29;20056;-89
2020/12/22 04:43:52;;;;;;;26.67;22.00;;;11.10;96.70;;;;;;4906591;29;20048;-89
2020/12/22 04:46:21;;;;;;;24.38;21.65;;;11.10;96.70;;;;;;4908683;29;20540;-89
2020/12/22 04:48:52;;;;;;;25.88;21.67;;;11.10;96.70;;;;;;4906788;29;20044;-89
2020/12/22 04:51:21;;;;;;;24.23;20.20;;;11.10;96.70;;;;;;4920376;29;20131;-89
2020/12/22 04:54:04;;;;;;;28.30;22.55;;;11.10;96.70;;;;;;4909730;29;20528;-89
2020/12/22 04:56:33;;;;;;;24.85;21.38;;;11.10;96.70;;;;;;4937738;29;20051;-89
2020/12/22 04:59:00;;;;;;;25.65;22.48;;;11.10;96.70;;;;;;4908784;29;20062;-89
2020/12/22 05:01:27;;;;;;;25.80;21.60;;;11.10;96.70;;;;;;4908171;29;20047;-89
2020/12/22 05:03:54;;;;;;;24.70;21.20;;;11.00;96.70;;;;;;4906922;29;20430;-89
2020/12/22 05:06:22;;;;;;;25.13;22.42;;;11.10;96.70;;;;;;4908299;29;20044;-89
2020/12/22 05:08:49;;;;;;;25.65;22.52;;;11.10;96.70;;;;;;4919630;29;20040;-89
2020/12/22 05:11:17;;;;;;;24.92;21.88;;;11.10;96.70;;;;;;4907967;29;20398;-89
2020/12/22 05:13:48;;;;;;;26.17;21.50;;;11.10;96.70;;;;;;4909241;29;20582;-89
2020/12/22 05:16:15;;;;;;;26.20;21.88;;;11.10;96.70;;;;;;4903553;29;20064;-88
2020/12/22 05:18:43;;;;;;;26.00;22.75;;;11.10;96.70;;;;;;4907200;29;20036;-88
2020/12/22 05:21:21;;;;;;;26.17;22.05;;;11.10;96.70;;;;;;4905800;29;20747;-88
2020/12/22 05:23:49;;;;;;;25.05;22.30;;;11.10;96.70;;;;;;4921717;29;20506;-88
2020/12/22 05:26:21;;;;;;;24.40;21.67;;;11.10;96.70;;;;;;4923680;29;20930;-88
2020/12/22 05:28:49;;;;;;;27.20;21.42;;;11.10;96.70;;;;;;4907210;29;20233;-89
2020/12/22 05:31:17;;;;;;;29.90;22.60;;;11.10;96.70;;;;;;4909020;29;20046;-90
2020/12/22 05:33:45;;;;;;;27.73;21.67;;;11.10;96.70;;;;;;4922132;29;20130;-89
2020/12/22 05:36:13;;;;;;;32.00;21.90;;;11.10;96.70;;;;;;4908735;29;20055;-89
2020/12/22 05:38:43;;;;;;;28.83;20.83;;;11.10;96.70;;;;;;4900645;29;20051;-89
2020/12/22 05:41:10;;;;;;;32.00;22.02;;;11.10;96.70;;;;;;4910785;29;20042;-89
2020/12/22 05:43:39;;;;;;;30.58;21.73;;;11.10;96.70;;;;;;4907776;29;20036;-88
2020/12/22 05:46:08;;;;;;;30.00;22.13;;;11.10;96.70;;;;;;4916626;29;20135;-89
2020/12/22 05:48:36;;;;;;;32.75;21.63;;;11.10;96.70;;;;;;4922038;29;20044;-87
2020/12/22 05:51:07;;;;;;;33.00;23.00;;;11.10;96.70;;;;;;4902779;29;20092;-89
2020/12/22 05:53:41;;;;;;;33.55;22.02;;;11.00;96.70;;;;;;4921792;29;20063;-89
2020/12/22 05:56:15;;;;;;;36.38;22.33;;;11.10;96.70;;;;;;4917107;29;20096;-89
2020/12/22 05:58:43;;;;;;;41.92;22.98;;;11.00;96.70;;;;;;4907189;29;20076;-89
2020/12/22 06:01:12;;;;;;;34.67;22.38;;;11.00;96.70;;;;;;4906330;29;20032;-90
2020/12/22 06:03:42;;;;;;;33.80;23.23;;;11.00;96.70;;;;;;4922260;29;20051;-90
2020/12/22 06:06:09;;;;;;;38.10;23.88;;;10.90;96.70;;;;;;4906473;29;20468;-89
2020/12/22 06:08:38;;;;;;;36.53;22.75;;;10.90;96.70;;;;;;4903217;29;20066;-89
2020/12/22 06:11:11;;;;;;;37.28;23.05;;;10.90;96.70;;;;;;4920406;29;20046;-90
2020/12/22 06:13:38;;;;;;;40.08;22.80;;;11.00;96.70;;;;;;4920009;29;20040;-89
2020/12/22 06:16:15;;;;;;;38.20;22.38;;;11.00;96.70;;;;;;4904071;29;20052;-89
2020/12/22 06:18:46;;;;;;;47.00;24.27;;;11.00;96.70;;;;;;4921120;29;20032;-89
2020/12/22 06:21:16;;;;;;;45.13;22.95;;;11.00;96.70;;;;;;4894958;29;20089;-89
2020/12/22 06:23:44;;;;;;;49.88;24.70;;;11.00;96.70;;;;;;4907687;29;20040;-89
2020/12/22 06:26:12;;;;;;;53.15;23.80;;;11.00;96.70;;;;;;4906262;29;20514;-89
2020/12/22 06:28:39;;;;;;;54.40;24.75;;;11.00;96.70;;;;;;4905947;29;20040;-89
2020/12/22 06:31:23;;;;;;;48.25;24.00;;;11.00;96.70;;;;;;4906009;29;20040;-89
2020/12/22 06:33:51;;;;;;;42.83;23.45;;;11.00;96.70;;;;;;4937336;28;20091;-91
2020/12/22 06:36:20;;;;;;;43.03;23.52;;;11.00;96.70;;;;;;4906596;29;20052;-88
2020/12/22 06:38:53;;;;;;;43.25;23.63;;;11.00;96.70;;;;;;4916175;29;20040;-88
2020/12/22 06:41:41;;;;;;;41.80;24.10;;;11.00;96.70;;;;;;4905184;29;20480;-91
2020/12/22 06:44:13;;;;;;;38.35;22.40;;;11.00;96.70;;;;;;4903600;29;20075;-91
2020/12/22 06:46:42;;;;;;;44.60;22.15;;;11.00;96.70;;;;;;4905630;29;20526;-90
2020/12/22 06:49:10;;;;;;;43.10;23.42;;;11.00;96.70;;;;;;4907136;29;20502;-90
2020/12/22 06:51:39;;;;;;;38.20;22.30;;;11.00;96.70;;;;;;4908867;29;20052;-90
2020/12/22 06:54:31;;;;;;;38.80;21.45;;;11.00;96.70;;;;;;4907112;29;20078;-88
2020/12/22 06:56:58;;;;;;;33.30;21.77;;;11.00;96.70;;;;;;4940986;29;20052;-87
2020/12/22 06:59:47;;;;;;;42.08;22.33;;;11.00;96.70;;;;;;4921766;29;20080;-89
2020/12/22 07:02:32;;;;;;;36.92;21.10;;;11.10;96.70;;;;;;4924083;29;20130;-89
2020/12/22 07:05:00;;;;;;;35.70;22.38;;;11.10;96.70;;;;;;4894828;29;20056;-89
2020/12/22 07:07:56;;;;;;;37.45;22.38;;;11.10;96.70;;;;;;4912331;29;20529;-89
2020/12/22 07:10:23;;;;;;;38.97;23.20;;;11.10;96.70;;;;;;4913256;29;20553;-89
2020/12/22 07:12:50;;;;;;;40.50;22.92;;;11.10;96.70;;;;;;4925486;29;20553;-88
2020/12/22 07:15:19;;;;;;;33.35;20.98;;;11.10;96.70;;;;;;4915257;29;20130;-87
2020/12/22 07:18:09;;;;;;;36.90;22.60;;;11.10;96.70;;;;;;4910426;29;20052;-91
2020/12/22 07:20:39;;;;;;;33.17;19.73;;;11.20;96.70;;;;;;4917265;29;20087;-88
2020/12/22 07:23:07;;;;;;;30.35;19.38;;;11.20;96.70;;;;;;4913558;29;20047;-88
2020/12/22 07:25:36;;;;;;;28.90;18.05;;;11.20;96.70;;;;;;4918041;29;20510;-92
2020/12/22 07:28:04;;;;;;;30.20;19.08;;;11.20;96.70;;;;;;4889201;29;20421;-91
2020/12/22 07:30:31;;;;;;;30.35;16.98;;;11.20;96.70;;;;;;4942550;28;20071;-92
2020/12/22 07:33:01;;;;;;;29.77;17.13;;;11.20;96.70;;;;;;4925673;29;20048;-91
2020/12/22 07:35:30;;;;;;;32.35;17.90;;;11.20;96.70;;;;;;4945326;28;20554;-92
2020/12/22 07:38:05;;;;;;;26.17;15.60;;;11.20;96.70;;;;;;4918052;29;20047;-91
2020/12/22 07:40:38;;;;;;;32.80;16.40;;;11.30;96.70;;;;;;4943998;28;20056;-92
2020/12/22 07:43:08;;;;;;;30.38;17.92;;;11.30;96.70;;;;;;4909730;29;20534;-91
2020/12/22 07:45:35;;;;;;;31.40;15.98;;;11.30;96.70;;;;;;4907340;29;20139;-91
2020/12/22 07:48:06;;;;;;;26.38;15.27;;;11.30;96.70;;;;;;4911269;29;20515;-91
2020/12/22 07:50:35;;;;;;;28.88;16.33;;;11.40;96.70;;;;;;4926294;29;20249;-92
2020/12/22 07:53:02;;;;;;;27.15;15.40;;;11.40;96.70;;;;;;4938687;28;20111;-90
2020/12/22 07:55:39;;;;;;;30.88;16.10;;;11.40;96.70;;;;;;4909557;29;20055;-89
2020/12/22 07:58:07;;;;;;;32.88;16.80;;;11.40;96.70;;;;;;4908961;29;20112;-89
2020/12/22 08:00:34;;;;;;;35.38;12.77;;;11.50;96.70;;;;;;4923249;29;20044;-93
2020/12/22 08:03:18;;;;;;;26.08;12.02;;;11.50;96.70;;;;;;4925262;29;20076;-92
2020/12/22 08:06:01;;;;;;;22.58;10.73;;;11.50;96.70;;;;;;4922726;29;20107;-88
2020/12/22 08:08:29;;;;;;;24.90;10.60;;;11.50;96.70;;;;;;4907659;29;20040;-86
2020/12/22 08:10:56;;;;;;;15.52;9.90;;;11.50;96.70;;;;;;4906642;29;20040;-87
2020/12/22 08:13:28;;;;;;;25.60;12.77;;;11.50;96.70;;;;;;4908499;29;20411;-91
2020/12/22 08:15:57;;;;;;;26.23;12.23;;;11.50;96.70;;;;;;4905827;29;20052;-87
2020/12/22 08:18:25;;;;;;;26.58;12.05;;;11.50;96.70;;;;;;4908413;29;20048;-89
2020/12/22 08:20:56;;;;;;;21.63;12.45;;;11.50;96.70;;;;;;4917864;29;20129;-86
2020/12/22 08:23:26;;;;;;;20.35;10.48;;;11.60;96.70;;;;;;4937216;28;20044;-83
2020/12/22 08:25:53;;;;;;;20.35;9.85;;;11.60;96.70;;;;;;4908821;29;20136;-88
2020/12/22 08:28:22;;;;;;;21.60;9.63;;;11.60;96.70;;;;;;4907964;29;20062;-90
2020/12/22 08:30:50;;;;;;;20.00;9.57;;;11.60;96.70;;;;;;4908381;29;20047;-85
2020/12/22 08:33:19;;;;;;;14.15;8.73;;;11.60;96.70;;;;;;4905323;29;20111;-86
2020/12/22 08:35:48;;;;;;;19.67;8.07;;;11.60;96.70;;;;;;4933627;29;20413;-90
2020/12/22 08:38:22;;;;;;;20.38;8.15;;;11.60;96.70;;;;;;4922535;29;20044;-86
2020/12/22 08:40:51;;;;;;;21.35;8.20;;;11.60;96.70;;;;;;4907620;29;20040;-86
2020/12/22 08:43:21;;;;;;;29.40;8.95;;;11.50;96.70;;;;;;4936703;28;20052;-85
2020/12/22 08:45:48;;;;;;;19.58;8.82;;;11.40;96.70;;;;;;4919447;29;20596;-84
2020/12/22 08:48:15;;;;;;;20.80;8.50;;;11.40;96.70;;;;;;4907378;29;20056;-89
2020/12/22 08:50:49;;;;;;;23.83;8.38;;;11.50;96.70;;;;;;4918552;29;20112;-86
2020/12/22 08:53:35;;;;;;;21.85;8.68;;;11.60;96.70;;;;;;4934686;28;20047;-85
2020/12/22 08:56:08;;;;;;;20.80;8.68;;;11.70;96.70;;;;;;4936316;29;20582;-84
2020/12/22 08:58:48;;;;;;;26.70;9.13;;;11.70;96.70;;;;;;4906756;29;20072;-87
2020/12/22 09:01:19;;;;;;;16.65;8.23;;;11.70;96.70;;;;;;4906904;29;20051;-85
2020/12/22 09:03:53;;;;;;;20.85;8.88;;;11.70;96.70;;;;;;4899981;29;20070;-86
2020/12/22 09:06:32;;;;;;;17.95;8.20;;;11.70;96.70;;;;;;4934483;28;20062;-85
2020/12/22 09:09:11;;;;;;;22.85;9.40;;;11.70;96.70;;;;;;4936936;29;20460;-86
2020/12/22 09:11:39;;;;;;;17.60;8.52;;;11.70;96.70;;;;;;4904211;29;20063;-85
2020/12/22 09:14:09;;;;;;;16.83;8.60;;;11.70;96.70;;;;;;4905887;29;20059;-88
2020/12/22 09:16:52;;;;;;;22.55;8.52;;;11.80;96.70;;;;;;4906179;29;20071;-87
2020/12/22 09:19:23;;;;;;;22.17;8.90;;;11.80;96.70;;;;;;4918835;29;20044;-86
2020/12/22 09:21:59;;;;;;;34.90;11.02;;;11.80;96.70;;;;;;4907192;29;20044;-86
2020/12/22 09:24:26;;;;;;;15.95;8.82;;;11.80;96.70;;;;;;4921404;29;20067;-86
2020/12/22 09:27:01;;;;;;;25.02;9.60;;;11.80;96.70;;;;;;4904783;29;20052;-86
2020/12/22 09:29:29;;;;;;;25.20;8.82;;;11.80;96.70;;;;;;4906144;29;20319;-86
2020/12/22 09:31:58;;;;;;;17.65;8.85;;;11.80;96.70;;;;;;4905699;29;20045;-86
2020/12/22 09:34:27;;;;;;;21.95;9.55;;;11.80;96.70;;;;;;4937472;28;20060;-85
2020/12/22 09:36:56;;;;;;;19.30;10.43;;;11.90;96.70;;;;;;4937537;28;20044;-91
2020/12/22 09:39:24;;;;;;;20.33;11.35;;;12.00;96.70;;;;;;4905406;29;20496;-91
2020/12/22 09:41:52;;;;;;;20.20;12.35;;;12.00;96.70;;;;;;4921446;29;20072;-91
2020/12/22 09:44:21;;;;;;;25.20;13.18;;;12.10;96.70;;;;;;4891954;29;20068;-90
2020/12/22 09:46:49;;;;;;;27.13;12.88;;;12.10;96.70;;;;;;4907085;29;20510;-89
2020/12/22 09:49:17;;;;;;;32.30;13.85;;;12.20;96.70;;;;;;4908438;29;20397;-92
2020/12/22 09:51:46;;;;;;;21.52;14.15;;;12.20;96.70;;;;;;4936127;28;20561;-89
2020/12/22 09:54:17;;;;;;;21.80;15.02;;;12.20;96.70;;;;;;4923554;29;20071;-89
2020/12/22 09:56:45;;;;;;;26.75;15.85;;;12.30;96.70;;;;;;4889562;29;20044;-93
2020/12/22 09:59:13;;;;;;;25.15;15.02;;;12.30;96.70;;;;;;4919820;29;20052;-90
2020/12/22 10:01:41;;;;;;;22.83;15.27;;;12.30;96.70;;;;;;4923745;29;20514;-91
2020/12/22 10:04:10;;;;;;;26.85;16.55;;;12.40;96.70;;;;;;4900784;29;20032;-89
2020/12/22 10:06:37;;;;;;;22.95;15.32;;;12.50;96.70;;;;;;4899451;29;20443;-89
2020/12/22 10:09:05;;;;;;;23.17;14.95;;;12.50;96.70;;;;;;4901680;29;20671;-88
2020/12/22 10:11:34;;;;;;;23.92;14.80;;;12.50;96.70;;;;;;4903181;29;20052;-87
2020/12/22 10:14:02;;;;;;;22.52;15.38;;;12.50;96.70;;;;;;4935188;28;20429;-86
2020/12/22 10:16:29;;;;;;;24.58;15.00;;;12.40;96.70;;;;;;4905381;29;20119;-86
2020/12/22 10:18:58;;;;;;;25.08;16.27;;;12.40;96.70;;;;;;4922054;29;20059;-86
2020/12/22 10:21:25;;;;;;;23.23;15.23;;;12.40;96.70;;;;;;4906456;29;20036;-86
2020/12/22 10:23:59;;;;;;;23.52;14.93;;;12.40;96.70;;;;;;4906921;29;20127;-85
2020/12/22 10:26:27;;;;;;;22.08;13.95;;;12.30;96.70;;;;;;4925533;29;20043;-86
2020/12/22 10:28:55;;;;;;;19.67;12.75;;;12.30;96.70;;;;;;4908975;29;20052;-86
2020/12/22 10:31:24;;;;;;;17.70;12.82;;;12.30;96.70;;;;;;4907241;29;20103;-86
2020/12/22 10:33:53;;;;;;;18.95;12.57;;;12.20;96.70;;;;;;4907988;29;20073;-86
2020/12/22 10:36:21;;;;;;;17.10;11.77;;;12.20;96.70;;;;;;4913563;29;20059;-86
2020/12/22 10:38:50;;;;;;;16.70;11.40;;;12.20;96.70;;;;;;4924697;29;20050;-86
2020/12/22 10:41:17;;;;;;;22.20;13.15;;;12.20;96.70;;;;;;4909124;29;20042;-86
2020/12/22 10:43:44;;;;;;;21.27;13.95;;;12.20;96.70;;;;;;4907378;29;20095;-86
2020/12/22 10:46:11;;;;;;;27.45;17.25;;;12.20;96.70;;;;;;4925288;29;20064;-86
2020/12/22 10:48:38;;;;;;;33.63;19.90;;;12.20;96.70;;;;;;4938075;28;20036;-86
2020/12/22 10:51:06;;;;;;;32.33;19.38;;;12.20;96.70;;;;;;4907162;29;20055;-87
2020/12/22 10:53:34;;;;;;;60.65;30.73;;;12.10;96.70;;;;;;4924236;29;20036;-88
2020/12/22 10:56:02;;;;;;;33.22;20.58;;;12.20;96.70;;;;;;4910402;29;20119;-87
2020/12/22 10:58:30;;;;;;;27.05;17.33;;;12.10;96.70;;;;;;4922420;29;20107;-86
2020/12/22 11:00:57;;;;;;;28.58;18.60;;;12.10;96.70;;;;;;4908553;29;20079;-87
2020/12/22 11:03:24;;;;;;;28.20;18.50;;;12.10;96.70;;;;;;4905131;29;20104;-87
2020/12/22 11:08:28;;;;;;;29.95;17.92;;;12.20;96.70;;;;;;4916839;29;20063;-85
2020/12/22 11:10:56;;;;;;;29.15;18.52;;;12.10;96.70;;;;;;4907776;29;20044;-86
2020/12/22 11:13:23;;;;;;;23.15;16.10;;;12.20;96.70;;;;;;4922517;29;20151;-86
2020/12/22 11:15:50;;;;;;;24.38;15.98;;;12.10;96.70;;;;;;4907505;29;20052;-86
2020/12/22 11:18:18;;;;;;;20.85;15.73;;;12.10;96.70;;;;;;4905720;29;20036;-86
2020/12/22 11:20:46;;;;;;;22.05;15.55;;;12.10;96.70;;;;;;4924761;29;20515;-86
2020/12/22 11:23:13;;;;;;;23.52;16.13;;;12.10;96.70;;;;;;4906325;29;20052;-85
2020/12/22 11:25:40;;;;;;;24.30;16.80;;;12.20;96.70;;;;;;4906828;29;20502;-86
2020/12/22 11:28:10;;;;;;;19.90;15.77;;;12.20;96.70;;;;;;4919034;29;20103;-86
2020/12/22 11:30:37;;;;;;;23.23;15.98;;;12.20;96.70;;;;;;4907937;29;20045;-85
2020/12/22 11:33:04;;;;;;;22.08;14.02;;;12.30;96.70;;;;;;4912536;29;20599;-85
2020/12/22 11:35:31;;;;;;;16.92;12.40;;;12.30;96.70;;;;;;4907366;29;20052;-85
2020/12/22 11:37:59;;;;;;;19.23;13.90;;;12.30;96.70;;;;;;4904298;29;20096;-84
2020/12/22 11:40:26;;;;;;;19.48;13.93;;;12.40;96.70;;;;;;4923147;29;20048;-85
2020/12/22 11:42:53;;;;;;;21.30;15.00;;;12.40;96.70;;;;;;4907052;29;20040;-85
2020/12/22 11:45:21;;;;;;;18.88;14.43;;;12.50;96.70;;;;;;4939323;28;20062;-85
2020/12/22 11:47:48;;;;;;;17.60;13.32;;;12.50;96.70;;;;;;4933863;28;20048;-85
2020/12/22 11:50:16;;;;;;;19.33;14.18;;;12.50;96.70;;;;;;4939185;28;20059;-86
2020/12/22 11:52:43;;;;;;;19.17;14.02;;;12.50;96.70;;;;;;4906170;29;20723;-84
2020/12/22 11:55:10;;;;;;;17.02;13.25;;;12.50;96.70;;;;;;4905896;29;20036;-85
2020/12/22 11:57:37;;;;;;;19.02;14.50;;;12.50;96.70;;;;;;4918458;29;20601;-85
2020/12/22 12:00:05;;;;;;;18.98;15.70;;;12.50;96.70;;;;;;4908078;29;20048;-85
2020/12/22 12:02:34;;;;;;;19.52;14.32;;;12.50;96.70;;;;;;4903822;29;20049;-85
2020/12/22 12:05:01;;;;;;;17.77;13.57;;;12.50;96.70;;;;;;4919513;29;20047;-86
2020/12/22 12:07:29;;;;;;;18.58;14.27;;;12.50;96.70;;;;;;4906391;29;20046;-85
2020/12/22 12:09:58;;;;;;;17.83;13.50;;;12.50;96.70;;;;;;4921290;29;20044;-85
2020/12/22 12:12:26;;;;;;;21.48;14.10;;;12.50;96.70;;;;;;4908756;29;20418;-86
2020/12/22 12:14:53;;;;;;;17.38;13.55;;;12.60;96.70;;;;;;4906362;29;20051;-86
2020/12/22 12:17:20;;;;;;;18.60;14.05;;;12.60;96.70;;;;;;4923055;29;20040;-86
2020/12/22 12:19:48;;;;;;;22.60;17.55;;;12.60;96.70;;;;;;4922563;29;20575;-85
2020/12/22 12:22:15;;;;;;;17.73;15.38;;;12.70;96.70;;;;;;4905403;29;20526;-85
2020/12/22 12:24:42;;;;;;;21.63;15.52;;;12.70;96.70;;;;;;4906334;29;20043;-85
2020/12/22 12:27:09;;;;;;;21.65;15.27;;;12.70;96.70;;;;;;4907066;29;20048;-83
2020/12/22 12:29:37;;;;;;;19.23;15.00;;;12.70;96.70;;;;;;4906122;29;20051;-84
2020/12/22 12:32:04;;;;;;;19.42;14.35;;;12.70;96.70;;;;;;4908250;29;20079;-89
2020/12/22 12:34:32;;;;;;;18.95;14.57;;;12.70;96.70;;;;;;4892811;29;20056;-88
2020/12/22 12:37:01;;;;;;;18.70;14.63;;;12.70;96.70;;;;;;4924052;29;20112;-88
2020/12/22 12:39:28;;;;;;;19.27;14.45;;;12.80;96.70;;;;;;4891711;29;20083;-87
2020/12/22 12:41:55;;;;;;;23.48;18.45;;;12.80;96.70;;;;;;4906252;29;20044;-87